createdAt,value
2023-04-09T00:03:28.475Z,4.00
2023-04-09T00:08:34.914Z,3.90
2023-04-09T00:13:41.438Z,3.80
2023-04-09T00:18:47.660Z,3.90
2023-04-09T00:23:53.228Z,4.10
2023-04-09T00:28:59.141Z,3.90
2023-04-09T00:34:05.762Z,4.00
2023-04-09T00:39:11.777Z,4.10
2023-04-09T00:44:17.644Z,4.10
2023-04-09T00:49:25.506Z,3.80
2023-04-09T00:54:31.442Z,3.70
2023-04-09T00:59:38.369Z,3.70
2023-04-09T01:04:45.199Z,4.00
2023-04-09T01:09:57.679Z,3.90
2023-04-09T01:15:19.388Z,3.90
2023-04-09T01:20:28.727Z,3.90
2023-04-09T01:26:06.772Z,3.80
2023-04-09T01:31:25.383Z,3.80
2023-04-09T01:36:32.560Z,3.50
2023-04-09T01:41:39.735Z,3.60
2023-04-09T01:46:49.689Z,3.60
2023-04-09T01:51:56.310Z,3.80
2023-04-09T01:57:02.813Z,4.00
2023-04-09T02:02:12.237Z,3.70
2023-04-09T02:07:37.229Z,3.60
2023-04-09T02:12:47.556Z,3.70
2023-04-09T02:17:54.251Z,3.60
2023-04-09T02:23:00.423Z,3.50
2023-04-09T02:28:06.391Z,3.70
2023-04-09T02:33:12.298Z,3.40
2023-04-09T02:38:18.489Z,3.40
2023-04-09T02:43:24.095Z,3.40
2023-04-09T02:48:30.206Z,3.70
2023-04-09T02:53:37.837Z,3.70
2023-04-09T02:58:43.438Z,3.90
2023-04-09T03:03:49.847Z,3.90
2023-04-09T03:08:56.748Z,3.90
2023-04-09T03:14:02.874Z,3.90
2023-04-09T03:19:09.695Z,3.90
2023-04-09T03:24:15.709Z,3.90
2023-04-09T03:29:21.761Z,3.90
2023-04-09T03:34:28.132Z,3.80
2023-04-09T03:39:34.571Z,3.90
2023-04-09T03:44:41.270Z,3.90
2023-04-09T03:49:48.281Z,3.80
2023-04-09T03:54:53.986Z,3.80
2023-04-09T03:59:59.766Z,4.00
2023-04-09T04:05:05.737Z,4.20
2023-04-09T04:10:12.639Z,4.20
2023-04-09T04:15:20.315Z,4.20
2023-04-09T04:20:26.899Z,4.10
2023-04-09T04:25:33.102Z,4.20
2023-04-09T04:30:39.228Z,4.20
2023-04-09T04:35:45.524Z,4.00
2023-04-09T04:40:51.392Z,3.90
2023-04-09T04:45:57.563Z,4.00
2023-04-09T04:51:03.921Z,4.10
2023-04-09T04:56:15.744Z,4.10
2023-04-09T05:01:23.059Z,4.00
2023-04-09T05:06:29.993Z,3.90
2023-04-09T05:11:36.768Z,4.00
2023-04-09T05:16:43.396Z,3.90
2023-04-09T05:21:49.816Z,3.80
2023-04-09T05:26:58.076Z,3.70
2023-04-09T05:32:05.979Z,3.90
2023-04-09T05:37:12.992Z,3.90
2023-04-09T05:42:19.092Z,3.90
2023-04-09T05:47:25.568Z,4.10
2023-04-09T05:52:30.921Z,3.90
2023-04-09T05:57:37.583Z,4.10
2023-04-09T06:02:43.143Z,4.20
2023-04-09T06:07:49.050Z,4.50
2023-04-09T06:12:56.223Z,4.30
2023-04-09T06:18:02.957Z,4.30
2023-04-09T06:23:08.540Z,4.40
2023-04-09T06:28:15.721Z,4.50
2023-04-09T06:33:22.273Z,4.50
2023-04-09T06:38:29.179Z,4.60
2023-04-09T06:43:36.552Z,4.70
2023-04-09T06:48:44.724Z,4.80
2023-04-09T06:53:51.448Z,4.90
2023-04-09T06:58:58.528Z,5.10
2023-04-09T07:04:04.848Z,5.20
2023-04-09T07:09:11.917Z,5.30
2023-04-09T07:14:17.952Z,5.50
2023-04-09T07:19:23.914Z,5.60
2023-04-09T07:24:29.610Z,5.90
2023-04-09T07:29:35.344Z,6.20
2023-04-09T07:34:41.577Z,6.60
2023-04-09T07:39:47.727Z,6.40
2023-04-09T07:44:53.859Z,6.70
2023-04-09T07:49:59.789Z,6.50
2023-04-09T07:55:05.532Z,6.80
2023-04-09T08:00:12.416Z,6.90
2023-04-09T08:05:19.124Z,7.00
2023-04-09T08:10:25.771Z,7.00
2023-04-09T08:15:31.504Z,7.00
2023-04-09T08:20:40.086Z,7.00
2023-04-09T08:25:51.209Z,7.20
2023-04-09T08:30:57.259Z,7.20
2023-04-09T08:36:03.519Z,7.20
2023-04-09T08:41:10.334Z,7.50
2023-04-09T08:46:17.517Z,7.70
2023-04-09T08:51:25.446Z,7.70
2023-04-09T08:56:31.379Z,7.80
2023-04-09T09:01:38.120Z,7.90
2023-04-09T09:06:44.552Z,7.80
2023-04-09T09:11:52.776Z,8.10
2023-04-09T09:17:03.198Z,7.90
2023-04-09T09:22:09.116Z,8.00
2023-04-09T09:27:34.737Z,8.30
2023-04-09T09:32:41.435Z,8.40
2023-04-09T09:37:48.217Z,8.20
2023-04-09T09:42:58.850Z,8.20
2023-04-09T09:48:07.186Z,8.60
2023-04-09T09:53:13.741Z,8.80
2023-04-09T09:58:24.224Z,8.60
2023-04-09T10:03:33.529Z,8.80
2023-04-09T10:08:42.097Z,8.70
2023-04-09T10:13:56.800Z,8.10
2023-04-09T10:19:03.853Z,8.40
2023-04-09T10:24:10.551Z,8.60
2023-04-09T10:29:17.252Z,8.50
2023-04-09T10:34:25.042Z,8.70
2023-04-09T10:39:33.566Z,8.70
2023-04-09T10:44:45.011Z,8.80
2023-04-09T10:49:51.299Z,8.90
2023-04-09T10:55:00.046Z,8.80
2023-04-09T11:00:07.653Z,8.60
2023-04-09T11:05:34.008Z,8.60
2023-04-09T11:10:45.490Z,8.60
2023-04-09T11:15:52.863Z,8.50
2023-04-09T11:21:01.620Z,8.70
2023-04-09T11:26:10.520Z,8.90
2023-04-09T11:31:16.873Z,9.30
2023-04-09T11:36:24.780Z,9.60
2023-04-09T11:41:38.342Z,9.70
2023-04-09T11:46:46.476Z,9.50
2023-04-09T11:51:53.261Z,10.00
2023-04-09T11:57:05.214Z,10.20
2023-04-09T12:02:11.491Z,10.20
2023-04-09T12:07:18.266Z,9.60
2023-04-09T12:12:25.895Z,9.30
2023-04-09T12:17:34.546Z,9.20
2023-04-09T12:22:41.667Z,9.20
2023-04-09T12:27:47.902Z,9.00
2023-04-09T12:32:57.139Z,8.80
2023-04-09T12:38:04.827Z,9.00
2023-04-09T12:43:10.866Z,9.10
2023-04-09T12:48:18.157Z,9.00
2023-04-09T12:53:24.048Z,9.20
2023-04-09T12:58:31.619Z,8.60
2023-04-09T13:03:38.504Z,8.40
2023-04-09T13:08:44.821Z,8.10
2023-04-09T13:13:51.733Z,8.00
2023-04-09T13:18:57.811Z,8.20
2023-04-09T13:24:06.026Z,8.40
2023-04-09T13:29:12.211Z,8.30
2023-04-09T13:34:18.451Z,8.30
2023-04-09T13:39:24.792Z,8.40
2023-04-09T13:44:30.624Z,8.20
2023-04-09T13:49:37.310Z,8.30
2023-04-09T13:54:43.021Z,8.10
2023-04-09T13:59:48.910Z,7.90
2023-04-09T14:04:54.955Z,7.90
2023-04-09T14:10:00.606Z,7.90
2023-04-09T14:15:07.666Z,7.70
2023-04-09T14:20:13.561Z,7.40
2023-04-09T14:25:19.673Z,7.50
2023-04-09T14:30:25.324Z,7.40
2023-04-09T14:35:31.560Z,7.20
2023-04-09T14:40:39.329Z,7.30
2023-04-09T14:45:45.207Z,7.40
2023-04-09T14:50:52.408Z,7.20
2023-04-09T14:55:58.667Z,7.10
2023-04-09T15:01:05.317Z,7.00
2023-04-09T15:06:12.766Z,7.00
2023-04-09T15:11:19.718Z,6.80
2023-04-09T15:16:27.304Z,6.70
2023-04-09T15:21:33.291Z,6.80
2023-04-09T15:26:39.275Z,7.00
2023-04-09T15:31:46.445Z,7.00
2023-04-09T15:36:53.529Z,6.90
2023-04-09T15:42:00.160Z,7.00
2023-04-09T15:47:05.751Z,6.90
2023-04-09T15:52:11.629Z,6.80
2023-04-09T15:57:19.143Z,6.70
2023-04-09T16:02:26.118Z,6.70
2023-04-09T16:07:32.542Z,6.60
2023-04-09T16:12:39.235Z,6.60
2023-04-09T16:17:49.120Z,6.70
2023-04-09T16:22:56.786Z,6.80
2023-04-09T16:28:03.965Z,6.80
2023-04-09T16:33:10.861Z,6.60
2023-04-09T16:38:17.291Z,6.50
2023-04-09T16:43:23.150Z,6.60
2023-04-09T16:48:29.633Z,6.70
2023-04-09T16:53:38.908Z,6.80
2023-04-09T16:58:46.839Z,6.70
2023-04-09T17:03:53.239Z,6.70
2023-04-09T17:09:01.935Z,6.70
2023-04-09T17:14:09.086Z,6.70
2023-04-09T17:19:14.963Z,6.60
2023-04-09T17:24:22.967Z,6.70
2023-04-09T17:29:30.124Z,6.80
2023-04-09T17:34:39.497Z,6.80
2023-04-09T17:39:46.722Z,6.80
2023-04-09T17:44:52.379Z,6.70
2023-04-09T17:50:00.225Z,6.80
2023-04-09T17:55:13.197Z,6.70
2023-04-09T18:00:19.936Z,6.70
2023-04-09T18:05:27.400Z,6.70
2023-04-09T18:10:34.288Z,6.60
2023-04-09T18:15:40.975Z,6.50
2023-04-09T18:20:52.745Z,6.50
2023-04-09T18:25:59.906Z,6.40
2023-04-09T18:31:06.868Z,6.30
2023-04-09T18:36:14.454Z,6.20
2023-04-09T18:41:27.898Z,6.20
2023-04-09T18:46:35.518Z,6.10
2023-04-09T18:51:43.366Z,6.00
2023-04-09T18:56:52.758Z,6.10
2023-04-09T19:01:59.665Z,6.20
2023-04-09T19:07:09.490Z,6.30
2023-04-09T19:12:17.138Z,6.20
2023-04-09T19:17:24.037Z,6.30
2023-04-09T19:22:36.157Z,6.20
2023-04-09T19:27:42.452Z,6.40
2023-04-09T19:32:49.557Z,6.30
2023-04-09T19:37:56.689Z,6.40
2023-04-09T19:43:04.596Z,6.40
2023-04-09T19:48:12.933Z,6.40
2023-04-09T19:53:20.312Z,6.30
2023-04-09T19:58:30.291Z,6.20
2023-04-09T20:03:36.688Z,6.20
2023-04-09T20:08:43.978Z,6.20
2023-04-09T20:13:51.043Z,6.20
2023-04-09T20:18:58.800Z,6.20
2023-04-09T20:24:07.335Z,6.10
2023-04-09T20:29:14.160Z,6.10
2023-04-09T20:34:20.949Z,6.10
2023-04-09T20:39:27.280Z,6.10
2023-04-09T20:44:33.267Z,6.10
2023-04-09T20:49:40.459Z,6.10
2023-04-09T20:54:46.854Z,6.00
2023-04-09T20:59:54.453Z,6.20
2023-04-09T21:05:08.524Z,6.10
2023-04-09T21:10:10.209Z,6.10
2023-04-09T21:15:17.278Z,5.90
2023-04-09T21:20:24.474Z,6.10
2023-04-09T21:25:31.111Z,6.10
2023-04-09T21:30:39.224Z,6.20
2023-04-09T21:35:45.478Z,6.20
2023-04-09T21:40:52.353Z,6.10
2023-04-09T21:45:58.371Z,6.20
2023-04-09T21:51:05.430Z,6.20
2023-04-09T21:56:12.034Z,6.20
2023-04-09T22:01:28.606Z,6.20
2023-04-09T22:06:29.627Z,6.10
2023-04-09T22:11:35.215Z,6.20
2023-04-09T22:16:40.848Z,6.30
2023-04-09T22:21:48.418Z,6.40
2023-04-09T22:26:59.308Z,6.40
2023-04-09T22:32:05.427Z,6.40
2023-04-09T22:37:11.389Z,6.40
2023-04-09T22:42:19.384Z,6.40
2023-04-09T22:47:25.548Z,6.40
2023-04-09T22:52:32.610Z,6.40
2023-04-09T22:57:41.589Z,6.30
2023-04-09T23:02:48.030Z,6.30
2023-04-09T23:07:55.771Z,6.40
2023-04-09T23:13:01.976Z,6.40
2023-04-09T23:18:08.253Z,6.40
2023-04-09T23:23:14.631Z,6.40
2023-04-09T23:28:20.283Z,6.40
2023-04-09T23:33:27.170Z,6.50
2023-04-09T23:38:34.031Z,6.50
2023-04-09T23:43:39.829Z,6.40
2023-04-09T23:48:46.391Z,6.40
2023-04-09T23:53:52.522Z,6.40
2023-04-09T23:59:00.288Z,6.40
